sensor_id;sensor_type;location;lat;lon;timestamp;P1;durP1;ratioP1;P2;durP2;ratioP2
705;SDS011;21234;48.690;9.016;2023-02-24T00:01:12;14.00;;;11.90;;
705;SDS011;21234;48.690;9.016;2023-02-24T00:03:48;16.70;;;11.40;;
705;SDS011;21234;48.690;9.016;2023-02-24T00:06:16;13.30;;;11.50;;
705;SDS011;21234;48.690;9.016;2023-02-24T00:08:44;14.70;;;11.63;;
705;SDS011;21234;48.690;9.016;2023-02-24T00:11:12;16.50;;;11.07;;
705;SDS011;21234;48.690;9.016;2023-02-24T00:13:41;12.87;;;10.17;;
705;SDS011;21234;48.690;9.016;2023-02-24T00:16:11;15.83;;;11.20;;
705;SDS011;21234;48.690;9.016;2023-02-24T00:18:40;18.13;;;12.47;;
705;SDS011;21234;48.690;9.016;2023-02-24T00:21:07;17.37;;;11.60;;
705;SDS011;21234;48.690;9.016;2023-02-24T00:23:38;16.73;;;11.20;;
705;SDS011;21234;48.690;9.016;2023-02-24T00:26:07;12.83;;;10.37;;
705;SDS011;21234;48.690;9.016;2023-02-24T00:28:35;18.37;;;11.87;;
705;SDS011;21234;48.690;9.016;2023-02-24T00:31:03;18.10;;;11.60;;
705;SDS011;21234;48.690;9.016;2023-02-24T00:33:31;14.77;;;10.83;;
705;SDS011;21234;48.690;9.016;2023-02-24T00:36:05;17.77;;;11.47;;
705;SDS011;21234;48.690;9.016;2023-02-24T00:38:33;13.27;;;9.50;;
705;SDS011;21234;48.690;9.016;2023-02-24T00:41:06;18.93;;;11.80;;
705;SDS011;21234;48.690;9.016;2023-02-24T00:43:36;15.30;;;10.40;;
705;SDS011;21234;48.690;9.016;2023-02-24T00:46:03;19.63;;;11.30;;
705;SDS011;21234;48.690;9.016;2023-02-24T00:48:35;16.20;;;11.67;;
705;SDS011;21234;48.690;9.016;2023-02-24T00:51:05;17.00;;;10.80;;
705;SDS011;21234;48.690;9.016;2023-02-24T00:53:34;15.37;;;11.27;;
705;SDS011;21234;48.690;9.016;2023-02-24T00:56:02;20.97;;;13.63;;
705;SDS011;21234;48.690;9.016;2023-02-24T00:58:32;17.03;;;13.30;;
705;SDS011;21234;48.690;9.016;2023-02-24T01:01:00;15.30;;;11.87;;
705;SDS011;21234;48.690;9.016;2023-02-24T01:03:28;23.13;;;12.90;;
705;SDS011;21234;48.690;9.016;2023-02-24T01:05:55;18.53;;;14.60;;
705;SDS011;21234;48.690;9.016;2023-02-24T01:08:26;20.20;;;13.30;;
705;SDS011;21234;48.690;9.016;2023-02-24T01:10:56;21.77;;;13.47;;
705;SDS011;21234;48.690;9.016;2023-02-24T01:13:42;19.23;;;13.47;;
705;SDS011;21234;48.690;9.016;2023-02-24T01:16:10;24.50;;;14.73;;
705;SDS011;21234;48.690;9.016;2023-02-24T01:18:38;21.37;;;13.77;;
705;SDS011;21234;48.690;9.016;2023-02-24T01:21:05;19.73;;;12.87;;
705;SDS011;21234;48.690;9.016;2023-02-24T01:23:32;23.20;;;13.80;;
705;SDS011;21234;48.690;9.016;2023-02-24T01:26:01;18.10;;;15.60;;
705;SDS011;21234;48.690;9.016;2023-02-24T01:28:28;23.00;;;13.80;;
705;SDS011;21234;48.690;9.016;2023-02-24T01:31:00;21.77;;;14.90;;
705;SDS011;21234;48.690;9.016;2023-02-24T01:33:29;19.83;;;14.27;;
705;SDS011;21234;48.690;9.016;2023-02-24T01:36:06;23.70;;;15.27;;
705;SDS011;21234;48.690;9.016;2023-02-24T01:38:34;22.37;;;15.80;;
705;SDS011;21234;48.690;9.016;2023-02-24T01:41:04;23.27;;;14.73;;
705;SDS011;21234;48.690;9.016;2023-02-24T01:43:32;22.20;;;15.60;;
705;SDS011;21234;48.690;9.016;2023-02-24T01:46:21;19.80;;;12.73;;
705;SDS011;21234;48.690;9.016;2023-02-24T01:48:48;20.67;;;13.93;;
705;SDS011;21234;48.690;9.016;2023-02-24T01:51:15;18.60;;;14.17;;
705;SDS011;21234;48.690;9.016;2023-02-24T01:53:43;20.70;;;14.50;;
705;SDS011;21234;48.690;9.016;2023-02-24T01:56:11;17.87;;;14.63;;
705;SDS011;21234;48.690;9.016;2023-02-24T01:58:39;18.90;;;14.80;;
705;SDS011;21234;48.690;9.016;2023-02-24T02:01:06;18.50;;;13.40;;
705;SDS011;21234;48.690;9.016;2023-02-24T02:03:37;18.53;;;13.07;;
705;SDS011;21234;48.690;9.016;2023-02-24T02:06:08;19.63;;;13.67;;
705;SDS011;21234;48.690;9.016;2023-02-24T02:08:37;15.67;;;13.63;;
705;SDS011;21234;48.690;9.016;2023-02-24T02:11:06;22.23;;;15.50;;
705;SDS011;21234;48.690;9.016;2023-02-24T02:13:35;20.40;;;14.70;;
705;SDS011;21234;48.690;9.016;2023-02-24T02:16:09;21.40;;;14.57;;
705;SDS011;21234;48.690;9.016;2023-02-24T02:18:55;20.23;;;14.40;;
705;SDS011;21234;48.690;9.016;2023-02-24T02:30:36;26.57;;;16.50;;
705;SDS011;21234;48.690;9.016;2023-02-24T02:36:25;24.30;;;16.23;;
705;SDS011;21234;48.690;9.016;2023-02-24T02:39:00;21.13;;;15.40;;
705;SDS011;21234;48.690;9.016;2023-02-24T02:41:39;23.77;;;15.90;;
705;SDS011;21234;48.690;9.016;2023-02-24T02:44:16;24.73;;;16.10;;
705;SDS011;21234;48.690;9.016;2023-02-24T02:46:46;20.67;;;15.77;;
705;SDS011;21234;48.690;9.016;2023-02-24T02:49:21;22.33;;;16.20;;
705;SDS011;21234;48.690;9.016;2023-02-24T02:51:59;21.50;;;14.43;;
705;SDS011;21234;48.690;9.016;2023-02-24T02:54:34;26.77;;;16.90;;
705;SDS011;21234;48.690;9.016;2023-02-24T02:57:10;20.83;;;14.70;;
705;SDS011;21234;48.690;9.016;2023-02-24T02:59:43;21.17;;;15.20;;
705;SDS011;21234;48.690;9.016;2023-02-24T03:02:16;25.10;;;16.10;;
705;SDS011;21234;48.690;9.016;2023-02-24T03:04:53;22.87;;;15.40;;
705;SDS011;21234;48.690;9.016;2023-02-24T03:07:25;23.00;;;14.73;;
705;SDS011;21234;48.690;9.016;2023-02-24T03:09:56;23.23;;;15.70;;
705;SDS011;21234;48.690;9.016;2023-02-24T03:12:27;21.30;;;13.93;;
705;SDS011;21234;48.690;9.016;2023-02-24T03:14:57;25.60;;;16.00;;
705;SDS011;21234;48.690;9.016;2023-02-24T03:17:27;21.60;;;15.60;;
705;SDS011;21234;48.690;9.016;2023-02-24T03:19:58;24.73;;;15.67;;
705;SDS011;21234;48.690;9.016;2023-02-24T03:22:41;20.73;;;15.40;;
705;SDS011;21234;48.690;9.016;2023-02-24T03:25:13;22.90;;;14.87;;
705;SDS011;21234;48.690;9.016;2023-02-24T03:27:42;25.60;;;16.33;;
705;SDS011;21234;48.690;9.016;2023-02-24T03:30:14;30.33;;;17.03;;
705;SDS011;21234;48.690;9.016;2023-02-24T03:32:46;19.43;;;15.10;;
705;SDS011;21234;48.690;9.016;2023-02-24T03:35:20;25.03;;;15.20;;
705;SDS011;21234;48.690;9.016;2023-02-24T03:37:50;27.27;;;16.87;;
705;SDS011;21234;48.690;9.016;2023-02-24T03:40:21;22.80;;;14.60;;
705;SDS011;21234;48.690;9.016;2023-02-24T03:42:55;24.17;;;14.17;;
705;SDS011;21234;48.690;9.016;2023-02-24T03:45:24;19.60;;;14.40;;
705;SDS011;21234;48.690;9.016;2023-02-24T03:47:52;26.90;;;16.53;;
705;SDS011;21234;48.690;9.016;2023-02-24T03:50:20;24.17;;;15.47;;
705;SDS011;21234;48.690;9.016;2023-02-24T03:52:49;25.60;;;16.30;;
705;SDS011;21234;48.690;9.016;2023-02-24T03:55:26;23.10;;;16.93;;
705;SDS011;21234;48.690;9.016;2023-02-24T03:58:04;22.90;;;16.43;;
705;SDS011;21234;48.690;9.016;2023-02-24T04:00:39;24.07;;;14.57;;
705;SDS011;21234;48.690;9.016;2023-02-24T04:03:13;23.10;;;16.23;;
705;SDS011;21234;48.690;9.016;2023-02-24T04:05:51;25.93;;;18.37;;
705;SDS011;21234;48.690;9.016;2023-02-24T04:08:25;26.10;;;17.90;;
705;SDS011;21234;48.690;9.016;2023-02-24T04:10:57;26.00;;;17.27;;
705;SDS011;21234;48.690;9.016;2023-02-24T04:13:31;33.30;;;19.00;;
705;SDS011;21234;48.690;9.016;2023-02-24T04:16:01;34.57;;;19.50;;
705;SDS011;21234;48.690;9.016;2023-02-24T04:18:35;30.00;;;19.83;;
705;SDS011;21234;48.690;9.016;2023-02-24T04:21:03;31.67;;;18.93;;
705;SDS011;21234;48.690;9.016;2023-02-24T04:23:34;33.63;;;20.10;;
705;SDS011;21234;48.690;9.016;2023-02-24T04:26:05;35.73;;;20.20;;
705;SDS011;21234;48.690;9.016;2023-02-24T04:28:34;28.50;;;19.53;;
705;SDS011;21234;48.690;9.016;2023-02-24T04:31:03;35.40;;;22.13;;
705;SDS011;21234;48.690;9.016;2023-02-24T04:33:34;31.27;;;20.10;;
705;SDS011;21234;48.690;9.016;2023-02-24T04:36:02;32.87;;;20.13;;
705;SDS011;21234;48.690;9.016;2023-02-24T04:38:30;31.77;;;20.30;;
705;SDS011;21234;48.690;9.016;2023-02-24T04:40:58;31.60;;;19.83;;
705;SDS011;21234;48.690;9.016;2023-02-24T04:43:25;34.10;;;18.90;;
705;SDS011;21234;48.690;9.016;2023-02-24T04:45:53;29.40;;;18.70;;
705;SDS011;21234;48.690;9.016;2023-02-24T04:48:20;34.67;;;20.27;;
705;SDS011;21234;48.690;9.016;2023-02-24T04:50:47;31.33;;;18.77;;
705;SDS011;21234;48.690;9.016;2023-02-24T04:53:19;32.43;;;19.63;;
705;SDS011;21234;48.690;9.016;2023-02-24T04:55:51;30.13;;;21.37;;
705;SDS011;21234;48.690;9.016;2023-02-24T04:58:20;33.60;;;20.23;;
705;SDS011;21234;48.690;9.016;2023-02-24T05:00:51;35.17;;;21.23;;
705;SDS011;21234;48.690;9.016;2023-02-24T05:03:19;35.87;;;20.87;;
705;SDS011;21234;48.690;9.016;2023-02-24T05:05:53;32.43;;;20.00;;
705;SDS011;21234;48.690;9.016;2023-02-24T05:08:22;30.07;;;17.77;;
705;SDS011;21234;48.690;9.016;2023-02-24T05:10:49;28.73;;;19.67;;
705;SDS011;21234;48.690;9.016;2023-02-24T05:13:17;41.27;;;19.47;;
705;SDS011;21234;48.690;9.016;2023-02-24T05:15:47;36.53;;;18.97;;
705;SDS011;21234;48.690;9.016;2023-02-24T05:18:14;41.17;;;20.73;;
705;SDS011;21234;48.690;9.016;2023-02-24T05:20:46;27.27;;;18.77;;
705;SDS011;21234;48.690;9.016;2023-02-24T05:23:32;36.83;;;21.63;;
705;SDS011;21234;48.690;9.016;2023-02-24T05:26:03;35.67;;;20.80;;
705;SDS011;21234;48.690;9.016;2023-02-24T05:28:33;35.17;;;18.80;;
705;SDS011;21234;48.690;9.016;2023-02-24T05:31:05;32.47;;;16.80;;
705;SDS011;21234;48.690;9.016;2023-02-24T05:33:33;33.63;;;17.80;;
705;SDS011;21234;48.690;9.016;2023-02-24T05:36:02;40.60;;;19.63;;
705;SDS011;21234;48.690;9.016;2023-02-24T05:38:32;32.57;;;19.40;;
705;SDS011;21234;48.690;9.016;2023-02-24T05:41:05;37.90;;;19.07;;
705;SDS011;21234;48.690;9.016;2023-02-24T05:43:32;28.77;;;18.73;;
705;SDS011;21234;48.690;9.016;2023-02-24T05:46:03;33.50;;;19.73;;
705;SDS011;21234;48.690;9.016;2023-02-24T05:48:32;35.80;;;20.63;;
705;SDS011;21234;48.690;9.016;2023-02-24T05:51:00;33.43;;;20.83;;
705;SDS011;21234;48.690;9.016;2023-02-24T05:53:28;30.33;;;17.63;;
705;SDS011;21234;48.690;9.016;2023-02-24T05:55:54;31.27;;;17.93;;
705;SDS011;21234;48.690;9.016;2023-02-24T05:58:26;27.07;;;16.23;;
705;SDS011;21234;48.690;9.016;2023-02-24T06:00:53;30.23;;;18.67;;
705;SDS011;21234;48.690;9.016;2023-02-24T06:03:22;30.97;;;19.03;;
705;SDS011;21234;48.690;9.016;2023-02-24T06:05:56;36.27;;;18.73;;
705;SDS011;21234;48.690;9.016;2023-02-24T06:08:29;28.27;;;17.30;;
705;SDS011;21234;48.690;9.016;2023-02-24T06:11:06;35.50;;;19.90;;
705;SDS011;21234;48.690;9.016;2023-02-24T06:13:34;32.97;;;19.53;;
705;SDS011;21234;48.690;9.016;2023-02-24T06:16:01;31.17;;;18.00;;
705;SDS011;21234;48.690;9.016;2023-02-24T06:18:28;35.33;;;18.17;;
705;SDS011;21234;48.690;9.016;2023-02-24T06:20:59;29.60;;;17.17;;
705;SDS011;21234;48.690;9.016;2023-02-24T06:23:26;30.20;;;19.10;;
705;SDS011;21234;48.690;9.016;2023-02-24T06:25:53;30.50;;;18.80;;
705;SDS011;21234;48.690;9.016;2023-02-24T06:28:22;32.53;;;17.87;;
705;SDS011;21234;48.690;9.016;2023-02-24T06:30:49;33.57;;;19.00;;
705;SDS011;21234;48.690;9.016;2023-02-24T06:33:15;29.77;;;16.63;;
705;SDS011;21234;48.690;9.016;2023-02-24T06:35:42;30.13;;;17.60;;
705;SDS011;21234;48.690;9.016;2023-02-24T06:38:10;34.50;;;17.93;;
705;SDS011;21234;48.690;9.016;2023-02-24T06:40:38;27.93;;;16.00;;
705;SDS011;21234;48.690;9.016;2023-02-24T06:43:07;27.00;;;16.60;;
705;SDS011;21234;48.690;9.016;2023-02-24T06:45:34;26.13;;;16.77;;
705;SDS011;21234;48.690;9.016;2023-02-24T06:48:01;34.37;;;19.07;;
705;SDS011;21234;48.690;9.016;2023-02-24T06:50:27;31.63;;;18.57;;
705;SDS011;21234;48.690;9.016;2023-02-24T06:52:55;26.20;;;18.07;;
705;SDS011;21234;48.690;9.016;2023-02-24T06:55:26;32.67;;;19.07;;
705;SDS011;21234;48.690;9.016;2023-02-24T06:57:53;35.00;;;20.07;;
705;SDS011;21234;48.690;9.016;2023-02-24T07:00:23;30.87;;;18.50;;
705;SDS011;21234;48.690;9.016;2023-02-24T07:03:01;34.13;;;20.13;;
705;SDS011;21234;48.690;9.016;2023-02-24T07:05:39;30.80;;;19.97;;
705;SDS011;21234;48.690;9.016;2023-02-24T07:08:06;35.10;;;19.47;;
705;SDS011;21234;48.690;9.016;2023-02-24T07:10:34;38.20;;;19.87;;
705;SDS011;21234;48.690;9.016;2023-02-24T07:13:01;28.63;;;18.47;;
705;SDS011;21234;48.690;9.016;2023-02-24T07:15:28;30.90;;;18.07;;
705;SDS011;21234;48.690;9.016;2023-02-24T07:17:56;28.70;;;19.10;;
705;SDS011;21234;48.690;9.016;2023-02-24T07:20:23;39.83;;;22.47;;
705;SDS011;21234;48.690;9.016;2023-02-24T07:22:50;33.93;;;20.43;;
705;SDS011;21234;48.690;9.016;2023-02-24T07:25:17;38.83;;;21.40;;
705;SDS011;21234;48.690;9.016;2023-02-24T07:27:58;36.80;;;23.20;;
705;SDS011;21234;48.690;9.016;2023-02-24T07:30:26;35.80;;;22.73;;
705;SDS011;21234;48.690;9.016;2023-02-24T07:32:54;35.87;;;22.30;;
705;SDS011;21234;48.690;9.016;2023-02-24T07:35:21;36.50;;;21.33;;
705;SDS011;21234;48.690;9.016;2023-02-24T07:37:48;34.47;;;19.27;;
705;SDS011;21234;48.690;9.016;2023-02-24T07:40:16;35.10;;;20.70;;
705;SDS011;21234;48.690;9.016;2023-02-24T07:42:46;27.73;;;17.83;;
705;SDS011;21234;48.690;9.016;2023-02-24T07:45:14;35.80;;;21.10;;
705;SDS011;21234;48.690;9.016;2023-02-24T07:47:41;31.77;;;19.60;;
705;SDS011;21234;48.690;9.016;2023-02-24T07:50:08;33.93;;;17.27;;
705;SDS011;21234;48.690;9.016;2023-02-24T07:52:38;33.97;;;19.83;;
705;SDS011;21234;48.690;9.016;2023-02-24T07:55:06;31.67;;;18.50;;
705;SDS011;21234;48.690;9.016;2023-02-24T07:57:34;30.70;;;19.30;;
705;SDS011;21234;48.690;9.016;2023-02-24T08:00:02;33.53;;;21.63;;
705;SDS011;21234;48.690;9.016;2023-02-24T08:02:42;33.30;;;19.50;;
705;SDS011;21234;48.690;9.016;2023-02-24T08:05:09;33.20;;;20.37;;
705;SDS011;21234;48.690;9.016;2023-02-24T08:07:36;30.10;;;18.30;;
705;SDS011;21234;48.690;9.016;2023-02-24T08:10:05;31.20;;;16.40;;
705;SDS011;21234;48.690;9.016;2023-02-24T08:12:38;29.20;;;18.63;;
705;SDS011;21234;48.690;9.016;2023-02-24T08:15:08;25.53;;;16.90;;
705;SDS011;21234;48.690;9.016;2023-02-24T08:17:43;28.57;;;18.57;;
705;SDS011;21234;48.690;9.016;2023-02-24T08:20:11;28.60;;;16.77;;
705;SDS011;21234;48.690;9.016;2023-02-24T08:22:49;24.43;;;16.60;;
705;SDS011;21234;48.690;9.016;2023-02-24T08:25:21;25.80;;;17.20;;
705;SDS011;21234;48.690;9.016;2023-02-24T08:27:49;29.97;;;17.20;;
705;SDS011;21234;48.690;9.016;2023-02-24T08:30:21;31.53;;;16.53;;
705;SDS011;21234;48.690;9.016;2023-02-24T08:32:51;27.90;;;17.47;;
705;SDS011;21234;48.690;9.016;2023-02-24T08:35:24;27.80;;;19.27;;
705;SDS011;21234;48.690;9.016;2023-02-24T08:37:57;24.73;;;15.00;;
705;SDS011;21234;48.690;9.016;2023-02-24T08:40:30;28.80;;;16.90;;
705;SDS011;21234;48.690;9.016;2023-02-24T08:43:16;27.43;;;16.20;;
705;SDS011;21234;48.690;9.016;2023-02-24T08:45:56;26.20;;;17.30;;
705;SDS011;21234;48.690;9.016;2023-02-24T08:48:27;21.73;;;15.00;;
705;SDS011;21234;48.690;9.016;2023-02-24T08:51:03;25.10;;;15.47;;
705;SDS011;21234;48.690;9.016;2023-02-24T08:53:37;21.97;;;13.70;;
705;SDS011;21234;48.690;9.016;2023-02-24T08:56:05;24.27;;;14.00;;
705;SDS011;21234;48.690;9.016;2023-02-24T08:58:37;22.87;;;14.07;;
705;SDS011;21234;48.690;9.016;2023-02-24T09:01:12;21.10;;;14.10;;
705;SDS011;21234;48.690;9.016;2023-02-24T09:03:45;25.20;;;15.20;;
705;SDS011;21234;48.690;9.016;2023-02-24T09:06:14;28.27;;;15.20;;
705;SDS011;21234;48.690;9.016;2023-02-24T09:08:49;26.43;;;15.80;;
705;SDS011;21234;48.690;9.016;2023-02-24T09:11:38;22.70;;;13.97;;
705;SDS011;21234;48.690;9.016;2023-02-24T09:14:08;23.07;;;14.07;;
705;SDS011;21234;48.690;9.016;2023-02-24T09:16:40;19.97;;;12.73;;
705;SDS011;21234;48.690;9.016;2023-02-24T09:19:28;21.87;;;12.50;;
705;SDS011;21234;48.690;9.016;2023-02-24T09:22:13;22.13;;;13.17;;
705;SDS011;21234;48.690;9.016;2023-02-24T09:24:55;27.67;;;15.40;;
705;SDS011;21234;48.690;9.016;2023-02-24T09:27:42;21.77;;;13.80;;
705;SDS011;21234;48.690;9.016;2023-02-24T09:30:10;17.93;;;12.47;;
705;SDS011;21234;48.690;9.016;2023-02-24T09:32:59;23.90;;;13.70;;
705;SDS011;21234;48.690;9.016;2023-02-24T09:35:32;23.03;;;14.30;;
705;SDS011;21234;48.690;9.016;2023-02-24T09:38:01;17.00;;;14.10;;
705;SDS011;21234;48.690;9.016;2023-02-24T09:40:30;17.40;;;10.87;;
705;SDS011;21234;48.690;9.016;2023-02-24T09:43:04;22.00;;;10.93;;
705;SDS011;21234;48.690;9.016;2023-02-24T09:45:43;14.33;;;9.50;;
705;SDS011;21234;48.690;9.016;2023-02-24T09:48:20;16.10;;;8.90;;
705;SDS011;21234;48.690;9.016;2023-02-24T09:50:55;21.73;;;10.47;;
705;SDS011;21234;48.690;9.016;2023-02-24T09:53:30;19.23;;;10.73;;
705;SDS011;21234;48.690;9.016;2023-02-24T09:56:06;18.70;;;10.03;;
705;SDS011;21234;48.690;9.016;2023-02-24T09:58:41;19.70;;;9.73;;
705;SDS011;21234;48.690;9.016;2023-02-24T10:01:28;12.67;;;8.07;;
705;SDS011;21234;48.690;9.016;2023-02-24T10:04:11;13.13;;;7.90;;
705;SDS011;21234;48.690;9.016;2023-02-24T10:06:49;14.20;;;7.63;;
705;SDS011;21234;48.690;9.016;2023-02-24T10:09:20;12.33;;;7.53;;
705;SDS011;21234;48.690;9.016;2023-02-24T10:11:52;12.13;;;7.53;;
705;SDS011;21234;48.690;9.016;2023-02-24T10:14:28;15.30;;;8.47;;
705;SDS011;21234;48.690;9.016;2023-02-24T10:17:09;12.43;;;8.30;;
705;SDS011;21234;48.690;9.016;2023-02-24T10:19:50;13.90;;;8.10;;
705;SDS011;21234;48.690;9.016;2023-02-24T10:22:37;14.73;;;7.93;;
705;SDS011;21234;48.690;9.016;2023-02-24T10:25:37;11.40;;;8.17;;
705;SDS011;21234;48.690;9.016;2023-02-24T10:28:11;14.33;;;7.00;;
705;SDS011;21234;48.690;9.016;2023-02-24T10:30:49;15.83;;;8.80;;
705;SDS011;21234;48.690;9.016;2023-02-24T10:33:29;12.60;;;7.80;;
705;SDS011;21234;48.690;9.016;2023-02-24T10:36:06;14.70;;;7.20;;
705;SDS011;21234;48.690;9.016;2023-02-24T10:38:37;18.40;;;7.43;;
705;SDS011;21234;48.690;9.016;2023-02-24T10:41:09;15.93;;;7.00;;
705;SDS011;21234;48.690;9.016;2023-02-24T10:43:37;13.83;;;8.83;;
705;SDS011;21234;48.690;9.016;2023-02-24T10:48:58;11.73;;;6.73;;
705;SDS011;21234;48.690;9.016;2023-02-24T10:51:29;16.40;;;7.37;;
705;SDS011;21234;48.690;9.016;2023-02-24T10:54:11;12.47;;;6.80;;
705;SDS011;21234;48.690;9.016;2023-02-24T10:57:00;10.20;;;6.27;;
705;SDS011;21234;48.690;9.016;2023-02-24T10:59:44;11.17;;;7.40;;
705;SDS011;21234;48.690;9.016;2023-02-24T11:02:33;11.60;;;6.67;;
705;SDS011;21234;48.690;9.016;2023-02-24T11:05:20;17.93;;;8.10;;
705;SDS011;21234;48.690;9.016;2023-02-24T11:08:08;16.47;;;9.37;;
705;SDS011;21234;48.690;9.016;2023-02-24T11:10:51;22.67;;;9.70;;
705;SDS011;21234;48.690;9.016;2023-02-24T11:13:22;22.00;;;11.90;;
705;SDS011;21234;48.690;9.016;2023-02-24T11:16:07;15.67;;;10.40;;
705;SDS011;21234;48.690;9.016;2023-02-24T11:18:53;18.63;;;10.40;;
705;SDS011;21234;48.690;9.016;2023-02-24T11:21:21;14.73;;;9.37;;
705;SDS011;21234;48.690;9.016;2023-02-24T11:23:51;21.23;;;10.50;;
705;SDS011;21234;48.690;9.016;2023-02-24T11:26:22;18.53;;;10.60;;
705;SDS011;21234;48.690;9.016;2023-02-24T11:28:54;13.87;;;9.37;;
705;SDS011;21234;48.690;9.016;2023-02-24T11:31:36;21.07;;;10.80;;
705;SDS011;21234;48.690;9.016;2023-02-24T11:34:17;29.40;;;16.43;;
705;SDS011;21234;48.690;9.016;2023-02-24T11:36:55;40.63;;;20.80;;
705;SDS011;21234;48.690;9.016;2023-02-24T11:39:36;28.50;;;17.83;;
705;SDS011;21234;48.690;9.016;2023-02-24T11:42:15;19.00;;;11.80;;
705;SDS011;21234;48.690;9.016;2023-02-24T11:44:50;14.00;;;10.43;;
705;SDS011;21234;48.690;9.016;2023-02-24T11:47:24;13.47;;;8.93;;
705;SDS011;21234;48.690;9.016;2023-02-24T11:50:03;17.97;;;10.80;;
705;SDS011;21234;48.690;9.016;2023-02-24T11:52:37;16.23;;;9.63;;
705;SDS011;21234;48.690;9.016;2023-02-24T11:55:13;19.60;;;10.50;;
705;SDS011;21234;48.690;9.016;2023-02-24T11:57:48;15.70;;;10.30;;
705;SDS011;21234;48.690;9.016;2023-02-24T12:00:20;16.13;;;9.40;;
705;SDS011;21234;48.690;9.016;2023-02-24T12:02:51;18.03;;;9.40;;
705;SDS011;21234;48.690;9.016;2023-02-24T12:05:23;17.37;;;10.07;;
705;SDS011;21234;48.690;9.016;2023-02-24T12:07:53;23.30;;;10.27;;
705;SDS011;21234;48.690;9.016;2023-02-24T12:10:23;15.73;;;9.50;;
705;SDS011;21234;48.690;9.016;2023-02-24T12:12:56;22.03;;;9.77;;
705;SDS011;21234;48.690;9.016;2023-02-24T12:15:29;9.30;;;7.37;;
705;SDS011;21234;48.690;9.016;2023-02-24T12:18:01;15.87;;;7.80;;
705;SDS011;21234;48.690;9.016;2023-02-24T12:20:37;15.60;;;7.80;;
705;SDS011;21234;48.690;9.016;2023-02-24T12:23:12;10.03;;;7.53;;
705;SDS011;21234;48.690;9.016;2023-02-24T12:25:46;15.70;;;8.43;;
705;SDS011;21234;48.690;9.016;2023-02-24T12:28:27;17.80;;;9.37;;
705;SDS011;21234;48.690;9.016;2023-02-24T12:31:05;22.50;;;8.83;;
705;SDS011;21234;48.690;9.016;2023-02-24T12:33:46;21.33;;;7.33;;
705;SDS011;21234;48.690;9.016;2023-02-24T12:36:32;15.53;;;8.80;;
705;SDS011;21234;48.690;9.016;2023-02-24T12:39:12;17.30;;;6.97;;
705;SDS011;21234;48.690;9.016;2023-02-24T12:41:45;11.27;;;6.20;;
705;SDS011;21234;48.690;9.016;2023-02-24T12:44:25;14.30;;;7.50;;
705;SDS011;21234;48.690;9.016;2023-02-24T12:47:00;10.90;;;6.90;;
705;SDS011;21234;48.690;9.016;2023-02-24T12:52:43;11.53;;;7.23;;
705;SDS011;21234;48.690;9.016;2023-02-24T12:55:19;19.73;;;7.50;;
705;SDS011;21234;48.690;9.016;2023-02-24T12:57:52;9.33;;;5.73;;
705;SDS011;21234;48.690;9.016;2023-02-24T13:00:29;14.13;;;6.57;;
705;SDS011;21234;48.690;9.016;2023-02-24T13:03:06;10.83;;;6.63;;
705;SDS011;21234;48.690;9.016;2023-02-24T13:05:45;25.03;;;6.37;;
705;SDS011;21234;48.690;9.016;2023-02-24T13:08:18;10.70;;;6.37;;
705;SDS011;21234;48.690;9.016;2023-02-24T13:10:53;11.30;;;5.73;;
705;SDS011;21234;48.690;9.016;2023-02-24T13:13:30;14.27;;;5.30;;
705;SDS011;21234;48.690;9.016;2023-02-24T13:16:05;11.17;;;5.40;;
705;SDS011;21234;48.690;9.016;2023-02-24T13:18:32;8.07;;;5.60;;
705;SDS011;21234;48.690;9.016;2023-02-24T13:21:01;19.87;;;6.67;;
705;SDS011;21234;48.690;9.016;2023-02-24T13:23:30;12.70;;;7.70;;
705;SDS011;21234;48.690;9.016;2023-02-24T13:25:57;11.33;;;5.70;;
705;SDS011;21234;48.690;9.016;2023-02-24T13:28:25;12.17;;;6.10;;
705;SDS011;21234;48.690;9.016;2023-02-24T13:30:56;11.67;;;5.43;;
705;SDS011;21234;48.690;9.016;2023-02-24T13:33:28;10.07;;;6.13;;
705;SDS011;21234;48.690;9.016;2023-02-24T13:36:07;8.23;;;4.97;;
705;SDS011;21234;48.690;9.016;2023-02-24T13:38:37;7.70;;;6.10;;
705;SDS011;21234;48.690;9.016;2023-02-24T13:41:08;15.20;;;7.07;;
705;SDS011;21234;48.690;9.016;2023-02-24T13:44:01;8.33;;;5.40;;
705;SDS011;21234;48.690;9.016;2023-02-24T13:46:47;6.27;;;4.77;;
705;SDS011;21234;48.690;9.016;2023-02-24T13:49:24;12.40;;;4.80;;
705;SDS011;21234;48.690;9.016;2023-02-24T13:52:00;10.37;;;5.73;;
705;SDS011;21234;48.690;9.016;2023-02-24T13:57:58;9.70;;;5.20;;
705;SDS011;21234;48.690;9.016;2023-02-24T14:00:35;10.90;;;4.97;;
705;SDS011;21234;48.690;9.016;2023-02-24T14:03:18;6.73;;;4.73;;
705;SDS011;21234;48.690;9.016;2023-02-24T14:05:48;7.30;;;4.67;;
705;SDS011;21234;48.690;9.016;2023-02-24T14:08:17;9.67;;;5.40;;
705;SDS011;21234;48.690;9.016;2023-02-24T14:10:50;9.80;;;5.47;;
705;SDS011;21234;48.690;9.016;2023-02-24T14:13:21;12.60;;;6.20;;
705;SDS011;21234;48.690;9.016;2023-02-24T14:15:52;11.70;;;5.00;;
705;SDS011;21234;48.690;9.016;2023-02-24T14:18:20;8.77;;;4.90;;
705;SDS011;21234;48.690;9.016;2023-02-24T14:20:50;8.83;;;6.20;;
705;SDS011;21234;48.690;9.016;2023-02-24T14:23:21;7.43;;;4.73;;
705;SDS011;21234;48.690;9.016;2023-02-24T14:25:51;11.73;;;5.30;;
705;SDS011;21234;48.690;9.016;2023-02-24T14:28:20;12.80;;;5.80;;
705;SDS011;21234;48.690;9.016;2023-02-24T14:30:51;10.13;;;5.27;;
705;SDS011;21234;48.690;9.016;2023-02-24T14:33:21;13.30;;;7.13;;
705;SDS011;21234;48.690;9.016;2023-02-24T14:35:54;8.97;;;6.10;;
705;SDS011;21234;48.690;9.016;2023-02-24T14:38:31;11.40;;;6.53;;
705;SDS011;21234;48.690;9.016;2023-02-24T14:40:59;13.13;;;6.87;;
705;SDS011;21234;48.690;9.016;2023-02-24T14:43:27;10.87;;;6.20;;
705;SDS011;21234;48.690;9.016;2023-02-24T14:45:56;8.80;;;6.00;;
705;SDS011;21234;48.690;9.016;2023-02-24T14:48:23;9.70;;;5.60;;
705;SDS011;21234;48.690;9.016;2023-02-24T14:50:51;9.93;;;5.20;;
705;SDS011;21234;48.690;9.016;2023-02-24T14:53:23;8.80;;;5.03;;
705;SDS011;21234;48.690;9.016;2023-02-24T14:55:54;6.33;;;4.40;;
705;SDS011;21234;48.690;9.016;2023-02-24T14:58:23;8.77;;;5.40;;
705;SDS011;21234;48.690;9.016;2023-02-24T15:00:55;9.63;;;6.20;;
705;SDS011;21234;48.690;9.016;2023-02-24T15:03:26;7.07;;;5.60;;
705;SDS011;21234;48.690;9.016;2023-02-24T15:05:58;10.77;;;4.90;;
705;SDS011;21234;48.690;9.016;2023-02-24T15:08:30;8.23;;;4.97;;
705;SDS011;21234;48.690;9.016;2023-02-24T15:11:01;8.67;;;5.10;;
705;SDS011;21234;48.690;9.016;2023-02-24T15:13:36;10.40;;;4.60;;
705;SDS011;21234;48.690;9.016;2023-02-24T15:16:08;9.50;;;5.17;;
705;SDS011;21234;48.690;9.016;2023-02-24T15:18:37;9.20;;;4.13;;
705;SDS011;21234;48.690;9.016;2023-02-24T15:21:07;8.70;;;4.70;;
705;SDS011;21234;48.690;9.016;2023-02-24T15:23:45;7.87;;;5.43;;
705;SDS011;21234;48.690;9.016;2023-02-24T15:26:23;10.50;;;5.10;;
705;SDS011;21234;48.690;9.016;2023-02-24T15:28:55;8.60;;;4.83;;
705;SDS011;21234;48.690;9.016;2023-02-24T15:31:23;9.20;;;5.67;;
705;SDS011;21234;48.690;9.016;2023-02-24T15:33:52;8.20;;;5.67;;
705;SDS011;21234;48.690;9.016;2023-02-24T15:36:24;10.00;;;5.03;;
705;SDS011;21234;48.690;9.016;2023-02-24T15:38:53;5.43;;;4.70;;
705;SDS011;21234;48.690;9.016;2023-02-24T15:41:23;9.47;;;5.00;;
705;SDS011;21234;48.690;9.016;2023-02-24T15:43:51;16.47;;;6.47;;
705;SDS011;21234;48.690;9.016;2023-02-24T15:46:22;9.27;;;5.23;;